Time;durP1;ratioP1;P1;durP2;ratioP2;P2;SDS_P1;SDS_P2;PMS_P1;PMS_P2;Temp;Humidity;BMP_temperature;BMP_pressure;BME280_temperature;BME280_humidity;BME280_pressure;Samples;Min_cycle;Max_cycle;Signal;HPM_P1;HPM_P2
2023/10/19 00:00:33;;;;;;;43.13;38.78;;;8.00;99.90;;;;;;5037428;28;20480;-79
2023/10/19 00:03:02;;;;;;;42.75;38.55;;;8.00;99.90;;;;;;5035126;28;20041;-78
2023/10/19 00:05:29;;;;;;;46.38;41.53;;;8.00;99.90;;;;;;5035429;28;20061;-78
2023/10/19 00:07:57;;;;;;;43.25;38.85;;;8.00;99.90;;;;;;5052860;28;20458;-79
2023/10/19 00:10:25;;;;;;;44.72;40.40;;;8.00;99.90;;;;;;5052376;28;20090;-78
2023/10/19 00:12:59;;;;;;;49.20;44.22;;;8.10;99.90;;;;;;5037671;28;20039;-80
2023/10/19 00:15:30;;;;;;;40.53;36.25;;;8.00;99.90;;;;;;5052036;28;20116;-78
2023/10/19 00:17:56;;;;;;;47.03;42.15;;;8.10;99.90;;;;;;5051016;28;20491;-77
2023/10/19 00:20:51;;;;;;;50.65;45.35;;;8.00;99.90;;;;;;5052023;28;20044;-77
2023/10/19 00:23:28;;;;;;;52.22;46.55;;;8.00;99.90;;;;;;5051458;28;20047;-78
2023/10/19 00:25:54;;;;;;;54.13;47.03;;;8.10;99.90;;;;;;5036696;28;20052;-78
2023/10/19 00:28:22;;;;;;;56.45;49.30;;;8.00;99.90;;;;;;5035146;28;20079;-78
2023/10/19 00:30:49;;;;;;;58.42;52.10;;;8.00;99.90;;;;;;5034275;28;20025;-79
2023/10/19 00:33:20;;;;;;;58.53;50.95;;;8.00;99.90;;;;;;5051345;28;20519;-79
2023/10/19 00:41:06;;;;;;;85.82;60.42;;;8.10;99.90;;;;;;5045766;28;20467;-79
2023/10/19 00:43:43;;;;;;;68.15;57.38;;;8.00;99.90;;;;;;5049957;28;20048;-79
2023/10/19 00:48:49;;;;;;;60.55;52.78;;;8.10;99.90;;;;;;5031886;28;20077;-78
2023/10/19 00:52:02;;;;;;;58.80;52.45;;;8.10;99.90;;;;;;5038604;28;20034;-78
2023/10/19 00:54:31;;;;;;;68.88;58.22;;;8.10;99.90;;;;;;5043257;28;20465;-77
2023/10/19 00:57:03;;;;;;;98.88;67.80;;;8.10;99.90;;;;;;5028831;28;20044;-79
2023/10/19 00:59:35;;;;;;;76.63;63.70;;;8.10;99.90;;;;;;5038040;28;20036;-78
2023/10/19 01:02:20;;;;;;;73.20;62.23;;;8.10;99.90;;;;;;5034977;28;20040;-78
2023/10/19 01:04:55;;;;;;;88.25;66.68;;;8.10;99.90;;;;;;5042127;28;20303;-77
2023/10/19 01:07:33;;;;;;;79.40;65.45;;;8.10;99.90;;;;;;5034458;28;20127;-77
2023/10/19 01:10:05;;;;;;;71.07;60.67;;;8.10;99.90;;;;;;5034110;28;20043;-78
2023/10/19 01:15:12;;;;;;;96.25;69.97;;;8.10;99.90;;;;;;5050275;28;20064;-77
2023/10/19 01:17:39;;;;;;;71.25;62.38;;;8.10;99.90;;;;;;5034678;28;20041;-77
2023/10/19 01:20:20;;;;;;;111.90;71.07;;;8.10;99.90;;;;;;5050701;28;20120;-76
2023/10/19 01:25:59;;;;;;;75.93;60.10;;;8.20;99.90;;;;;;5050001;28;20518;-77
2023/10/19 01:28:42;;;;;;;109.65;71.10;;;8.20;99.90;;;;;;5048803;28;20490;-77
2023/10/19 01:33:57;;;;;;;81.75;62.50;;;8.30;99.90;;;;;;5043299;28;20079;-77
2023/10/19 01:39:00;;;;;;;61.53;54.75;;;8.30;99.90;;;;;;5050585;28;20041;-77
2023/10/19 01:41:26;;;;;;;62.63;54.22;;;8.30;99.90;;;;;;5050072;28;20049;-77
2023/10/19 01:43:53;;;;;;;62.00;53.15;;;8.40;99.90;;;;;;5054871;28;20045;-77
2023/10/19 01:46:24;;;;;;;66.57;54.10;;;8.40;99.90;;;;;;5063804;28;20044;-77
2023/10/19 01:48:55;;;;;;;73.38;59.30;;;8.40;99.90;;;;;;5033166;28;20033;-78
2023/10/19 01:51:23;;;;;;;85.78;63.45;;;8.40;99.90;;;;;;5049511;28;20187;-78
2023/10/19 01:53:48;;;;;;;65.10;53.40;;;8.40;99.90;;;;;;5049648;28;20517;-78
2023/10/19 01:56:16;;;;;;;89.30;65.90;;;8.40;99.90;;;;;;5033785;28;20131;-77
2023/10/19 01:58:43;;;;;;;67.18;55.22;;;8.40;99.90;;;;;;5049788;28;20037;-78
2023/10/19 02:03:41;;;;;;;78.80;61.92;;;8.40;99.90;;;;;;5049688;28;20055;-77
2023/10/19 02:09:00;;;;;;;72.95;58.85;;;8.40;99.90;;;;;;5049630;28;20041;-77
2023/10/19 02:17:20;;;;;;;61.17;54.45;;;8.40;99.90;;;;;;5005432;28;20057;-77
2023/10/19 02:46:51;;;;;;;51.92;46.33;;;8.70;99.90;;;;;;4954329;29;20041;-77
2023/10/19 03:18:39;;;;;;;104.47;64.75;;;8.90;99.90;;;;;;4994029;28;20417;-77
2023/10/19 03:21:05;;;;;;;76.78;59.45;;;8.90;99.90;;;;;;4989772;28;20038;-77
2023/10/19 03:23:34;;;;;;;113.00;68.97;;;8.90;99.90;;;;;;4974804;28;20038;-77
2023/10/19 03:28:45;;;;;;;139.25;73.35;;;9.00;99.90;;;;;;4977900;28;20125;-77
2023/10/19 03:31:17;;;;;;;117.00;68.95;;;8.90;99.90;;;;;;4976850;28;20038;-77
2023/10/19 03:33:44;;;;;;;117.47;69.67;;;8.90;99.90;;;;;;4960143;28;20507;-77
2023/10/19 03:36:13;;;;;;;306.98;91.88;;;8.90;99.90;;;;;;4977150;28;20552;-77
2023/10/19 03:38:40;;;;;;;209.45;81.72;;;8.90;99.90;;;;;;4977498;28;20055;-77
2023/10/19 03:41:07;;;;;;;160.20;76.93;;;8.90;99.90;;;;;;4976507;28;20130;-77
2023/10/19 03:43:34;;;;;;;135.98;74.75;;;8.90;99.90;;;;;;4976197;28;20043;-77
2023/10/19 03:46:06;;;;;;;108.38;67.68;;;9.00;99.90;;;;;;4976973;28;20125;-78
2023/10/19 03:48:37;;;;;;;205.52;81.70;;;9.00;99.90;;;;;;4961130;28;20054;-77
2023/10/19 03:51:04;;;;;;;96.22;64.70;;;9.00;99.90;;;;;;4969766;28;20039;-77
2023/10/19 03:53:33;;;;;;;204.05;78.60;;;9.10;99.90;;;;;;4958114;28;20401;-77
2023/10/19 03:55:58;;;;;;;190.02;83.18;;;9.10;99.90;;;;;;4976496;28;20118;-77
2023/10/19 03:58:24;;;;;;;141.70;74.35;;;9.10;99.90;;;;;;4977050;28;20500;-77
2023/10/19 04:00:50;;;;;;;87.25;64.25;;;9.10;99.90;;;;;;4975948;28;20138;-77
2023/10/19 04:03:24;;;;;;;100.03;66.75;;;9.10;99.90;;;;;;4967968;28;20507;-77
2023/10/19 04:05:50;;;;;;;96.93;66.82;;;9.20;99.90;;;;;;4960484;28;20045;-77
2023/10/19 04:08:20;;;;;;;249.35;87.43;;;9.30;99.90;;;;;;4976866;28;20057;-77
2023/10/19 04:21:06;;;;;;;187.98;80.97;;;9.40;99.90;;;;;;5010776;28;20107;-77
2023/10/19 04:23:47;;;;;;;141.30;75.70;;;9.40;99.90;;;;;;4994654;28;20508;-77
2023/10/19 04:26:24;;;;;;;117.32;72.47;;;9.40;99.90;;;;;;4975148;28;20034;-77
2023/10/19 04:28:55;;;;;;;93.32;65.10;;;9.40;99.90;;;;;;4979393;28;21496;-77
2023/10/19 04:31:23;;;;;;;124.75;71.68;;;9.40;99.90;;;;;;4971147;28;20038;-76
2023/10/19 04:33:58;;;;;;;135.93;71.57;;;9.50;99.90;;;;;;4992143;28;20038;-77
2023/10/19 04:36:25;;;;;;;184.07;81.47;;;9.60;99.90;;;;;;4978968;28;20471;-77
2023/10/19 04:38:52;;;;;;;177.20;84.72;;;9.60;99.90;;;;;;4979345;28;20049;-77
2023/10/19 04:41:17;;;;;;;185.77;79.80;;;9.60;99.90;;;;;;4987141;28;20042;-77
2023/10/19 04:43:49;;;;;;;191.25;84.28;;;9.60;99.90;;;;;;5009850;28;20554;-77
2023/10/19 04:46:18;;;;;;;169.82;83.38;;;9.50;99.90;;;;;;4993998;28;20061;-77
2023/10/19 04:48:44;;;;;;;113.53;71.10;;;9.60;99.90;;;;;;4992139;28;20096;-77
2023/10/19 04:51:10;;;;;;;162.60;78.32;;;9.60;99.90;;;;;;4995088;28;20033;-77
2023/10/19 04:53:36;;;;;;;197.63;85.95;;;9.70;99.90;;;;;;4987116;28;20038;-77
2023/10/19 04:56:04;;;;;;;346.20;96.07;;;9.60;99.90;;;;;;4995197;28;20092;-77
2023/10/19 04:58:30;;;;;;;225.48;88.13;;;9.70;99.90;;;;;;4994827;28;20050;-77
2023/10/19 05:00:58;;;;;;;177.77;81.45;;;9.70;99.90;;;;;;4994761;28;20445;-77
2023/10/19 05:03:25;;;;;;;184.43;82.20;;;9.70;99.90;;;;;;4987582;28;20088;-77
2023/10/19 05:05:51;;;;;;;127.32;76.00;;;9.70;99.90;;;;;;4978580;28;20057;-78
2023/10/19 05:08:17;;;;;;;240.05;89.07;;;9.80;99.90;;;;;;4993685;28;20123;-77
2023/10/19 05:10:42;;;;;;;277.42;96.97;;;9.80;99.90;;;;;;4988698;28;20368;-77
2023/10/19 05:13:08;;;;;;;110.00;71.50;;;9.90;99.90;;;;;;4994055;28;20062;-77
2023/10/19 05:15:36;;;;;;;274.70;92.82;;;9.90;99.90;;;;;;4994574;28;20046;-77
2023/10/19 05:18:02;;;;;;;107.25;70.38;;;10.00;99.90;;;;;;4992804;28;20503;-77
2023/10/19 05:20:28;;;;;;;105.05;70.72;;;10.00;99.90;;;;;;4992674;28;20042;-77
2023/10/19 05:22:53;;;;;;;103.90;70.50;;;10.10;99.90;;;;;;4989325;28;20049;-76
2023/10/19 05:25:19;;;;;;;106.97;73.38;;;10.10;99.90;;;;;;4970047;28;20044;-76
2023/10/19 05:27:45;;;;;;;110.13;72.82;;;10.10;99.90;;;;;;4977215;28;20088;-77
2023/10/19 05:30:11;;;;;;;105.63;73.10;;;10.10;99.90;;;;;;4994524;28;20034;-76
2023/10/19 05:32:37;;;;;;;104.38;69.47;;;10.10;99.90;;;;;;4969941;28;20039;-76
2023/10/19 05:35:04;;;;;;;246.90;88.75;;;10.10;99.90;;;;;;4994495;28;20044;-76
2023/10/19 05:37:30;;;;;;;95.47;67.70;;;10.10;99.90;;;;;;5009164;28;20041;-76
2023/10/19 05:39:57;;;;;;;126.25;77.25;;;10.20;99.90;;;;;;4986091;28;20034;-76
2023/10/19 05:42:22;;;;;;;146.32;77.72;;;10.20;99.90;;;;;;4975774;28;20033;-76
2023/10/19 05:44:48;;;;;;;212.50;88.07;;;10.20;99.90;;;;;;4993255;28;20038;-75
2023/10/19 05:47:13;;;;;;;104.97;71.35;;;10.20;99.90;;;;;;4986385;28;20274;-75
2023/10/19 05:49:39;;;;;;;333.50;96.95;;;10.20;99.90;;;;;;4983940;28;20493;-76
2023/10/19 05:52:05;;;;;;;215.35;88.88;;;10.30;99.90;;;;;;4965970;28;20061;-76
2023/10/19 05:54:30;;;;;;;114.93;75.38;;;10.20;99.90;;;;;;4992228;28;20038;-76
2023/10/19 05:56:56;;;;;;;183.63;86.35;;;10.30;99.90;;;;;;5003505;28;20038;-76
2023/10/19 05:59:26;;;;;;;130.90;77.38;;;10.30;99.90;;;;;;4978137;28;20037;-76
2023/10/19 06:01:52;;;;;;;130.15;79.13;;;10.30;99.90;;;;;;4992574;28;20099;-76
2023/10/19 06:04:17;;;;;;;276.17;94.28;;;10.40;99.90;;;;;;4993537;28;20038;-76
2023/10/19 06:06:43;;;;;;;295.95;100.75;;;10.30;99.90;;;;;;4985849;28;20088;-76
2023/10/19 06:09:09;;;;;;;139.70;79.40;;;10.30;99.90;;;;;;4993567;28;20468;-76
2023/10/19 06:11:37;;;;;;;203.63;90.05;;;10.30;99.90;;;;;;4992674;28;20042;-76
2023/10/19 06:14:06;;;;;;;134.93;79.32;;;10.40;99.90;;;;;;4977093;28;20034;-76
2023/10/19 06:16:33;;;;;;;112.63;76.32;;;10.40;99.90;;;;;;4977717;28;20092;-76
2023/10/19 06:18:59;;;;;;;123.00;79.32;;;10.50;99.90;;;;;;4994496;28;20087;-76
2023/10/19 06:21:25;;;;;;;108.53;75.70;;;10.50;99.90;;;;;;4973712;28;20686;-76
2023/10/19 06:23:52;;;;;;;114.55;78.22;;;10.60;99.90;;;;;;4988730;28;20061;-76
2023/10/19 06:26:18;;;;;;;116.97;77.95;;;10.60;99.90;;;;;;4997708;28;20119;-75
2023/10/19 06:28:44;;;;;;;101.07;75.40;;;10.70;99.90;;;;;;4997130;28;20482;-75
2023/10/19 06:31:09;;;;;;;138.45;79.97;;;10.70;99.90;;;;;;4989301;28;20030;-75
2023/10/19 06:33:35;;;;;;;170.63;86.38;;;10.70;99.90;;;;;;4973587;28;20077;-75
2023/10/19 06:36:05;;;;;;;117.38;79.53;;;10.70;99.90;;;;;;4988457;28;20084;-75
2023/10/19 06:38:33;;;;;;;110.68;75.93;;;10.70;99.90;;;;;;4980008;28;20038;-75
2023/10/19 06:40:59;;;;;;;113.28;79.15;;;10.80;99.90;;;;;;4989528;28;20488;-75
2023/10/19 06:43:28;;;;;;;154.50;86.85;;;10.90;99.90;;;;;;5014127;28;20053;-75
2023/10/19 06:45:55;;;;;;;160.75;85.72;;;10.80;99.90;;;;;;4988923;28;20073;-75
2023/10/19 06:48:21;;;;;;;113.63;76.88;;;10.80;99.90;;;;;;4997743;28;20042;-75
2023/10/19 06:50:46;;;;;;;113.68;77.68;;;10.90;99.90;;;;;;4997561;28;20037;-75
2023/10/19 06:53:12;;;;;;;112.97;77.53;;;10.90;99.90;;;;;;4997713;28;20042;-75
2023/10/19 06:55:37;;;;;;;114.57;77.40;;;10.90;99.90;;;;;;4988575;28;20141;-75
2023/10/19 06:58:04;;;;;;;109.78;77.60;;;10.90;99.90;;;;;;4997647;28;20045;-76
2023/10/19 07:00:30;;;;;;;107.25;75.32;;;11.00;99.90;;;;;;4997541;28;20103;-76
2023/10/19 07:02:59;;;;;;;115.10;77.38;;;11.00;99.90;;;;;;4997561;28;20439;-76
2023/10/19 07:05:25;;;;;;;105.55;74.68;;;11.00;99.90;;;;;;4988235;28;20050;-76
2023/10/19 07:07:53;;;;;;;103.40;74.53;;;11.00;99.90;;;;;;5013587;28;20042;-76
2023/10/19 07:10:19;;;;;;;103.22;74.25;;;11.10;99.90;;;;;;4980995;28;20041;-76
2023/10/19 07:12:48;;;;;;;178.25;87.22;;;11.10;99.90;;;;;;4996370;28;20038;-76
2023/10/19 07:15:14;;;;;;;116.20;77.70;;;11.10;99.90;;;;;;4988927;28;20038;-76
2023/10/19 07:17:41;;;;;;;118.35;77.18;;;11.10;99.90;;;;;;4993237;28;20038;-76
2023/10/19 07:20:17;;;;;;;97.82;71.22;;;11.10;99.90;;;;;;4991974;28;20049;-76
2023/10/19 07:22:44;;;;;;;102.68;74.30;;;11.20;99.90;;;;;;5012947;28;20038;-76
2023/10/19 07:25:11;;;;;;;97.05;72.60;;;11.20;99.90;;;;;;4988827;28;20042;-76
2023/10/19 07:27:36;;;;;;;102.13;73.07;;;11.20;99.90;;;;;;5017387;28;20038;-76
2023/10/19 07:30:06;;;;;;;103.13;73.40;;;11.20;99.90;;;;;;4996047;28;20125;-75
2023/10/19 07:32:33;;;;;;;96.93;71.07;;;11.20;99.90;;;;;;4996881;28;20080;-75
2023/10/19 07:34:59;;;;;;;106.28;74.88;;;11.20;99.90;;;;;;4996679;28;20045;-75
2023/10/19 07:37:24;;;;;;;98.78;71.68;;;11.30;99.90;;;;;;5003207;28;20412;-75
2023/10/19 07:39:52;;;;;;;98.88;71.68;;;11.30;99.90;;;;;;4980953;28;20045;-75
2023/10/19 07:42:18;;;;;;;107.70;74.85;;;11.30;99.90;;;;;;4993441;28;20448;-75
2023/10/19 07:44:44;;;;;;;96.07;70.68;;;11.30;99.90;;;;;;4996700;28;20252;-75
2023/10/19 07:47:11;;;;;;;90.65;67.63;;;11.40;99.90;;;;;;4980443;28;20030;-75
2023/10/19 07:49:38;;;;;;;93.93;70.13;;;11.40;99.90;;;;;;4993501;28;20045;-75
2023/10/19 07:52:06;;;;;;;92.30;70.15;;;11.40;99.90;;;;;;4987760;28;20068;-75
2023/10/19 07:54:35;;;;;;;88.38;67.47;;;11.40;99.90;;;;;;4977325;28;20393;-75
2023/10/19 07:57:07;;;;;;;98.20;70.13;;;11.50;99.90;;;;;;5009439;28;20038;-75
2023/10/19 07:59:33;;;;;;;105.05;73.18;;;11.50;99.90;;;;;;4979029;28;20045;-76
2023/10/19 08:02:02;;;;;;;113.32;74.13;;;11.50;99.90;;;;;;4990161;28;20543;-76
2023/10/19 08:04:31;;;;;;;100.88;69.97;;;11.50;99.90;;;;;;5012610;28;20049;-76
2023/10/19 08:06:58;;;;;;;89.40;68.05;;;11.60;99.90;;;;;;4991577;28;20062;-76
2023/10/19 08:09:25;;;;;;;93.75;68.05;;;11.60;99.90;;;;;;4996147;28;20042;-76
2023/10/19 08:11:55;;;;;;;85.88;66.53;;;11.70;99.90;;;;;;4996431;28;20073;-76
2023/10/19 08:14:22;;;;;;;89.70;67.57;;;11.70;99.90;;;;;;5012627;28;20057;-76
2023/10/19 08:16:47;;;;;;;84.82;66.10;;;11.70;99.90;;;;;;4987220;28;20041;-76
2023/10/19 08:19:13;;;;;;;108.78;69.18;;;11.80;99.90;;;;;;4995877;28;20403;-76
2023/10/19 08:21:38;;;;;;;96.15;68.80;;;11.80;99.90;;;;;;4979867;28;20100;-76
2023/10/19 08:24:04;;;;;;;145.43;76.60;;;11.80;99.90;;;;;;4995925;28;20053;-76
2023/10/19 08:26:31;;;;;;;83.32;66.28;;;11.90;99.90;;;;;;4986997;28;20121;-76
2023/10/19 08:28:58;;;;;;;123.05;73.82;;;11.90;99.90;;;;;;4996223;28;20042;-76
2023/10/19 08:31:24;;;;;;;98.47;70.13;;;11.90;99.90;;;;;;4996148;28;20449;-76
2023/10/19 08:33:50;;;;;;;80.72;63.45;;;11.90;99.90;;;;;;4995681;28;20034;-76
2023/10/19 08:36:19;;;;;;;107.88;70.68;;;12.00;99.90;;;;;;4987111;28;20038;-76
2023/10/19 08:38:46;;;;;;;91.30;66.13;;;12.00;99.90;;;;;;4987808;28;20111;-75
2023/10/19 08:41:14;;;;;;;87.45;64.07;;;12.10;99.90;;;;;;4987169;28;20485;-75
2023/10/19 08:43:39;;;;;;;87.75;66.53;;;12.10;99.90;;;;;;4994323;28;20041;-75
2023/10/19 08:46:06;;;;;;;88.78;65.95;;;12.10;99.90;;;;;;4979342;28;20042;-75
2023/10/19 08:48:36;;;;;;;78.82;63.10;;;12.20;99.90;;;;;;4979325;28;20050;-76
2023/10/19 08:51:09;;;;;;;157.93;78.40;;;12.20;99.90;;;;;;4979504;28;20037;-76
2023/10/19 08:53:40;;;;;;;;;;;12.20;99.90;;;;;;4988438;28;20037;-76
2023/10/19 08:56:07;;;;;;;75.78;61.33;;;12.20;99.90;;;;;;4995127;28;19917;-76
2023/10/19 08:58:33;;;;;;;73.63;60.78;;;12.40;99.90;;;;;;4995071;28;20045;-76
2023/10/19 09:01:06;;;;;;;74.13;62.67;;;12.40;99.90;;;;;;4995161;28;20041;-76
2023/10/19 09:03:32;;;;;;;75.78;63.83;;;12.40;99.90;;;;;;4986965;28;20509;-76
2023/10/19 09:06:02;;;;;;;96.47;67.70;;;12.50;99.90;;;;;;4994802;28;20046;-76
2023/10/19 09:08:38;;;;;;;72.78;59.75;;;12.50;99.90;;;;;;4994650;28;20124;-76
2023/10/19 09:11:13;;;;;;;64.90;57.25;;;12.60;99.90;;;;;;4978756;28;20040;-76
2023/10/19 09:13:51;;;;;;;63.95;56.88;;;12.70;99.90;;;;;;5011386;28;20045;-76
2023/10/19 09:16:21;;;;;;;70.35;58.78;;;12.70;99.90;;;;;;4995208;28;20085;-76
2023/10/19 09:18:48;;;;;;;59.42;53.00;;;12.70;99.90;;;;;;4994444;28;20049;-76
2023/10/19 09:21:25;;;;;;;69.68;59.05;;;12.80;99.90;;;;;;4994640;28;20277;-76
2023/10/19 09:24:00;;;;;;;72.45;59.13;;;12.80;99.90;;;;;;4994980;28;20045;-76
2023/10/19 09:26:26;;;;;;;77.13;58.65;;;12.80;99.90;;;;;;4994592;28;20519;-76
2023/10/19 09:28:53;;;;;;;61.78;54.05;;;12.90;99.90;;;;;;4977968;28;20038;-76
2023/10/19 09:31:21;;;;;;;83.15;61.17;;;12.90;99.90;;;;;;4994518;28;20134;-76
2023/10/19 09:33:48;;;;;;;55.95;50.17;;;13.00;99.90;;;;;;4994741;28;20038;-76
2023/10/19 09:36:15;;;;;;;56.90;50.92;;;13.00;99.90;;;;;;4994476;28;20058;-76
2023/10/19 09:38:44;;;;;;;56.83;50.35;;;13.10;99.90;;;;;;4994069;28;20041;-76
2023/10/19 09:41:13;;;;;;;52.25;46.90;;;13.10;99.90;;;;;;4986381;28;20044;-76
2023/10/19 09:43:43;;;;;;;58.25;52.03;;;13.20;99.90;;;;;;4994621;28;20093;-76
2023/10/19 09:46:13;;;;;;;55.75;49.78;;;13.20;99.90;;;;;;4994294;28;20053;-76
2023/10/19 09:48:45;;;;;;;53.08;47.63;;;13.30;99.90;;;;;;4977456;28;20444;-76
2023/10/19 09:51:11;;;;;;;54.70;48.95;;;13.30;99.90;;;;;;4989524;28;20065;-76
2023/10/19 09:53:39;;;;;;;55.05;49.13;;;13.30;99.90;;;;;;4986200;28;20064;-76
2023/10/19 09:56:08;;;;;;;54.88;49.25;;;13.30;99.90;;;;;;5010851;28;20496;-76
2023/10/19 09:58:44;;;;;;;51.97;46.97;;;13.40;99.90;;;;;;4971555;28;20142;-76
2023/10/19 10:01:13;;;;;;;52.47;47.15;;;13.40;99.90;;;;;;4989625;28;20044;-76
2023/10/19 10:03:49;;;;;;;52.42;46.85;;;13.40;99.90;;;;;;4985668;28;20046;-76
2023/10/19 10:06:17;;;;;;;49.50;44.55;;;13.50;99.90;;;;;;4977778;28;20041;-76
2023/10/19 10:08:47;;;;;;;50.22;45.30;;;13.60;99.90;;;;;;4986047;28;20412;-76
2023/10/19 10:11:17;;;;;;;55.03;49.42;;;13.70;99.90;;;;;;4978000;28;20527;-75
2023/10/19 10:13:50;;;;;;;55.83;50.08;;;13.70;99.90;;;;;;4993474;28;20484;-76
2023/10/19 10:16:17;;;;;;;57.22;51.25;;;13.80;99.90;;;;;;4985950;28;20093;-76
2023/10/19 10:18:48;;;;;;;53.38;48.10;;;13.90;99.90;;;;;;4994513;28;20064;-75
2023/10/19 10:21:16;;;;;;;53.05;47.78;;;13.90;99.90;;;;;;4994113;28;20042;-75
2023/10/19 10:23:44;;;;;;;49.70;44.85;;;14.00;99.90;;;;;;5009985;28;20542;-75
2023/10/19 10:26:12;;;;;;;45.92;41.75;;;14.10;99.90;;;;;;4977453;28;20121;-76
2023/10/19 10:28:38;;;;;;;51.45;46.65;;;14.20;99.90;;;;;;4994370;28;20054;-76
2023/10/19 10:31:13;;;;;;;44.63;40.55;;;14.30;99.90;;;;;;4994094;28;20046;-76
2023/10/19 10:33:46;;;;;;;61.92;52.67;;;14.40;99.90;;;;;;4993919;28;20053;-76
2023/10/19 10:36:13;;;;;;;62.20;51.97;;;14.40;99.90;;;;;;4986022;28;20053;-75
2023/10/19 10:38:40;;;;;;;74.25;56.10;;;14.50;99.90;;;;;;4993265;28;20092;-76
2023/10/19 10:41:09;;;;;;;47.92;43.13;;;14.60;99.90;;;;;;4993162;28;20030;-75
2023/10/19 10:43:52;;;;;;;44.03;39.60;;;14.70;99.90;;;;;;4984757;28;20057;-74
2023/10/19 10:46:19;;;;;;;41.22;37.47;;;14.70;99.90;;;;;;4985649;28;20045;-74
2023/10/19 10:48:45;;;;;;;44.72;40.35;;;14.70;99.90;;;;;;4993993;28;20050;-74
2023/10/19 10:51:19;;;;;;;41.63;37.90;;;14.70;99.90;;;;;;4976207;28;20030;-74
2023/10/19 10:53:48;;;;;;;42.58;38.83;;;14.70;99.90;;;;;;4988371;28;20077;-76
2023/10/19 10:56:14;;;;;;;42.22;38.28;;;14.80;99.90;;;;;;4993801;28;20443;-75
2023/10/19 10:58:40;;;;;;;38.67;35.13;;;14.70;99.90;;;;;;5009571;28;20512;-75
2023/10/19 11:01:06;;;;;;;42.15;38.13;;;14.80;99.90;;;;;;4984017;28;20045;-76
2023/10/19 11:03:31;;;;;;;39.33;35.83;;;14.80;99.90;;;;;;4985590;28;20045;-76
2023/10/19 11:06:04;;;;;;;36.42;33.28;;;14.90;99.90;;;;;;4995111;28;20054;-76
2023/10/19 11:08:32;;;;;;;33.40;30.45;;;14.90;99.90;;;;;;4994422;28;20038;-76
2023/10/19 11:11:06;;;;;;;36.25;33.05;;;15.00;99.90;;;;;;4971330;28;20030;-76
2023/10/19 11:13:35;;;;;;;36.10;32.97;;;14.90;99.90;;;;;;4996708;28;20064;-76
2023/10/19 11:16:03;;;;;;;34.35;31.35;;;14.90;99.90;;;;;;4993652;28;20049;-76
2023/10/19 11:18:39;;;;;;;33.78;30.77;;;15.00;99.90;;;;;;5012639;28;20038;-76
2023/10/19 11:21:14;;;;;;;33.40;30.38;;;15.00;99.90;;;;;;4986760;28;20034;-76
2023/10/19 11:23:45;;;;;;;34.63;31.67;;;15.10;99.90;;;;;;4994918;28;20034;-75
2023/10/19 11:26:12;;;;;;;34.92;31.95;;;15.20;99.90;;;;;;4996659;28;20515;-76
2023/10/19 11:28:43;;;;;;;40.90;37.05;;;15.40;99.90;;;;;;4995420;28;20252;-76
2023/10/19 11:31:16;;;;;;;35.33;32.25;;;15.40;99.90;;;;;;4988673;28;20046;-76
2023/10/19 11:33:43;;;;;;;33.25;30.38;;;15.40;99.90;;;;;;4992478;28;20077;-76
2023/10/19 11:36:12;;;;;;;34.13;30.80;;;15.40;99.90;;;;;;4991918;28;20034;-76
2023/10/19 11:38:47;;;;;;;36.30;33.00;;;15.50;99.90;;;;;;4993576;28;20112;-76
2023/10/19 11:41:14;;;;;;;31.90;28.92;;;15.70;99.90;;;;;;4991817;28;20049;-77
2023/10/19 11:43:42;;;;;;;32.58;29.77;;;16.00;99.90;;;;;;4971169;28;20069;-76
2023/10/19 11:46:09;;;;;;;34.70;31.80;;;16.20;99.90;;;;;;4992223;28;20042;-76
2023/10/19 11:48:36;;;;;;;34.45;31.55;;;16.20;99.90;;;;;;4992881;28;20045;-76
2023/10/19 11:51:03;;;;;;;35.70;32.28;;;16.30;99.90;;;;;;4990667;28;20053;-76
2023/10/19 11:53:34;;;;;;;34.15;31.02;;;16.10;99.90;;;;;;5012175;28;20468;-76
2023/10/19 11:56:07;;;;;;;35.40;32.35;;;16.00;99.90;;;;;;4996274;28;20124;-76
2023/10/19 11:58:41;;;;;;;33.70;30.88;;;15.90;99.90;;;;;;4996617;28;20077;-76
2023/10/19 12:01:08;;;;;;;35.22;31.80;;;16.00;99.90;;;;;;4995293;28;20030;-76
2023/10/19 12:03:39;;;;;;;35.88;32.63;;;16.10;99.90;;;;;;4995808;28;20412;-76
2023/10/19 12:06:08;;;;;;;35.42;32.22;;;16.00;99.90;;;;;;4996158;28;20042;-76
2023/10/19 12:08:35;;;;;;;37.75;34.35;;;15.80;99.90;;;;;;4969389;28;20161;-76
2023/10/19 12:11:03;;;;;;;39.35;36.05;;;15.70;99.90;;;;;;4990394;28;20038;-76
2023/10/19 12:13:29;;;;;;;39.83;36.00;;;15.70;99.90;;;;;;4987553;28;20034;-76
2023/10/19 12:15:57;;;;;;;39.60;36.00;;;15.60;99.90;;;;;;4994541;28;20511;-76
2023/10/19 12:18:28;;;;;;;40.63;36.88;;;15.50;99.90;;;;;;4990020;28;20040;-76
2023/10/19 12:20:56;;;;;;;41.22;37.50;;;15.30;99.90;;;;;;4989168;28;20457;-76
2023/10/19 12:23:23;;;;;;;41.35;37.75;;;15.20;99.90;;;;;;4995942;28;20038;-76
2023/10/19 12:25:49;;;;;;;41.88;38.05;;;15.20;99.90;;;;;;4990993;28;20034;-76
2023/10/19 12:28:14;;;;;;;43.35;39.28;;;15.10;99.90;;;;;;4991115;28;20115;-76
2023/10/19 12:30:43;;;;;;;41.30;37.70;;;15.00;99.90;;;;;;4995728;28;20038;-76
2023/10/19 12:33:12;;;;;;;42.22;38.33;;;15.00;99.90;;;;;;4988296;28;20435;-76
2023/10/19 12:35:45;;;;;;;43.55;39.58;;;15.00;99.90;;;;;;4994655;28;20045;-76
2023/10/19 12:38:17;;;;;;;43.33;39.47;;;15.00;99.90;;;;;;4979575;28;20045;-76
2023/10/19 12:40:44;;;;;;;47.95;43.28;;;14.90;99.90;;;;;;4986407;28;20407;-76
2023/10/19 12:43:10;;;;;;;48.33;44.03;;;14.90;99.90;;;;;;4972131;28;20455;-76
2023/10/19 12:45:38;;;;;;;53.35;48.08;;;14.80;99.90;;;;;;4978484;28;20459;-77
2023/10/19 12:48:05;;;;;;;49.83;45.13;;;14.80;99.90;;;;;;4974486;28;20441;-75
2023/10/19 12:50:30;;;;;;;47.35;43.08;;;14.80;99.90;;;;;;4981189;28;20600;-76
2023/10/19 12:52:57;;;;;;;47.08;42.67;;;14.70;99.90;;;;;;4995149;28;20129;-76
2023/10/19 12:55:26;;;;;;;47.58;42.97;;;14.80;99.90;;;;;;4994182;28;20500;-77
2023/10/19 12:57:56;;;;;;;50.67;45.83;;;14.70;99.90;;;;;;4995338;28;20168;-76
2023/10/19 13:00:36;;;;;;;48.80;44.20;;;14.70;99.90;;;;;;5009273;28;20091;-77
2023/10/19 13:03:05;;;;;;;49.80;44.90;;;14.70;99.90;;;;;;4991019;28;20035;-76
2023/10/19 13:05:38;;;;;;;51.90;47.00;;;14.70;99.90;;;;;;4994893;28;20046;-76
2023/10/19 13:08:14;;;;;;;52.10;47.25;;;14.70;99.90;;;;;;4995059;28;20116;-76
2023/10/19 13:10:44;;;;;;;53.38;48.47;;;14.60;99.90;;;;;;4994666;28;20427;-76
2023/10/19 13:13:11;;;;;;;53.35;48.35;;;14.60;99.90;;;;;;4992789;28;20049;-76
2023/10/19 13:15:39;;;;;;;51.53;46.80;;;14.70;99.90;;;;;;4993745;28;20134;-77
2023/10/19 13:18:06;;;;;;;53.22;47.97;;;14.70;99.90;;;;;;5011457;28;20057;-76
2023/10/19 13:20:36;;;;;;;51.78;46.90;;;14.70;99.90;;;;;;4993776;28;20124;-76
2023/10/19 13:23:03;;;;;;;48.38;44.08;;;14.80;99.90;;;;;;4987532;28;20070;-77
2023/10/19 13:25:49;;;;;;;50.50;46.05;;;14.80;99.90;;;;;;4984453;28;20056;-76
2023/10/19 13:28:17;;;;;;;52.58;47.55;;;14.80;99.90;;;;;;4994097;28;20046;-75
2023/10/19 13:30:47;;;;;;;54.38;49.22;;;14.80;99.90;;;;;;4993786;28;20046;-76
2023/10/19 13:33:13;;;;;;;56.28;50.97;;;14.80;99.90;;;;;;4987132;28;20538;-76
2023/10/19 13:35:41;;;;;;;55.08;49.92;;;14.80;99.90;;;;;;4968965;28;20066;-76
2023/10/19 13:38:08;;;;;;;58.35;52.55;;;14.70;99.90;;;;;;4978730;28;20053;-76
2023/10/19 13:40:35;;;;;;;58.40;52.47;;;14.60;99.90;;;;;;4994590;28;20045;-76
2023/10/19 13:43:04;;;;;;;60.03;54.03;;;14.50;99.90;;;;;;5016936;28;20040;-76
2023/10/19 13:45:32;;;;;;;62.60;56.05;;;14.40;99.90;;;;;;4994128;28;20037;-75
2023/10/19 13:48:04;;;;;;;63.25;56.65;;;14.30;99.90;;;;;;4972726;28;20577;-76
2023/10/19 13:50:31;;;;;;;70.68;63.13;;;14.30;99.90;;;;;;4992522;28;20049;-76
2023/10/19 13:52:57;;;;;;;67.28;59.97;;;14.20;99.90;;;;;;4988594;28;20408;-76
2023/10/19 13:55:23;;;;;;;70.45;62.85;;;14.10;99.90;;;;;;4991552;28;20499;-76
2023/10/19 13:57:50;;;;;;;70.57;61.63;;;14.10;99.90;;;;;;4994448;28;20125;-76
2023/10/19 14:00:23;;;;;;;74.25;64.68;;;14.00;99.90;;;;;;5009835;28;20046;-76
2023/10/19 14:02:51;;;;;;;74.97;65.03;;;14.00;99.90;;;;;;4994690;28;20045;-76
2023/10/19 14:05:24;;;;;;;68.05;60.50;;;13.90;99.90;;;;;;4985489;28;20049;-76
2023/10/19 14:07:50;;;;;;;72.63;64.28;;;14.00;99.90;;;;;;4971044;28;20052;-76
2023/10/19 14:10:16;;;;;;;74.68;63.78;;;13.90;99.90;;;;;;4977247;28;20080;-75
2023/10/19 14:12:42;;;;;;;76.50;63.90;;;13.90;99.90;;;;;;4993020;28;20065;-76